[問題] 從不被看好到變身明星的選手

作者
看板 Baseball
時間
留言 96則留言,82人參與討論
推噓 70 ( 71推 1噓 24→ )
討論串 4
剛剛在看千賀滉大投球的影片,找了一下千賀的報導,發現他剛加入職棒時是個很平凡 的投手,但在前幾年忽然間速球成長到可以突破160km/hr,現在變成是軟銀的明星投手 更有挑戰大聯盟的機會。 是說想請教大家一下,有關於美、日職棒,大家覺得有哪些令人印象深刻的球員,是選 秀或交易進來的時候只是個平凡不起眼的球員,然後忽然間有一天成長到變成是大投手 或巨砲,跌破大家眼鏡之類的「大器晚成」型球員呢? 之前看過板上有鄉民整理旅外球員簽約金的名單,可以發現旅外球員的發展軌跡跟簽約 金的多寡似乎呈現不弱的正相關....。 當然也可以說球探的眼光非常精準,多少潛力就值多少身價,但都沒有那種選秀順位真 的超級後面或者簽約金便宜到不行,最後卻成為陣中關鍵人物、看板球星的球員嗎? 希望大家可以分享一下~ -- ※ 發信站: 批踢踢實業坊(ptt.cc), 來自: 114.47.78.231 ※ 文章網址: https://www.ptt.cc/bbs/Baseball/M.1558150022.A.1CA.html
1Fyoungorg: 阿土伯 05/18 11:28
2FEEERRIICC: 選秀超後面就賣披薩 05/18 11:29
3FCImbX: RJ 05/18 11:29
4Fpolanco: 阿土伯21歲上大聯盟 22歲進明星賽 哪裡晚成了… 05/18 11:30
5Fsustainer123: 包爺 05/18 11:30
6Fyoungorg: 他不是問兩個問題嗎? 05/18 11:31
7FStarLeauge: 嶋重宣 05/18 11:31
8FLETSGOCUBS: Arrieta 05/18 11:31
9FlookforQueen: ra狄奇 05/18 11:31
10Flalawul: 絕對是包爺~~~~ 05/18 11:31
11Fmarco76415: 皮鴨薩 05/18 11:31
12FHarretly: JD馬 05/18 11:32
13FJimmyRollins: 軟泥 05/18 11:32
14Ftaiwansibia: 攝津正 05/18 11:32
15Fmarco76415: 大器晚成很多你是說本來不被看好的吧 05/18 11:32
16FJEWH: 你是不是搞錯大器晚成的意思 05/18 11:33
17FMsKing: RJ 05/18 11:34
18FJEWH: 我說1樓 = = 05/18 11:35
19Fcitpo: Randy Johnson 以前控球悲劇 慢慢開竅~~~~~~ 後來HOF 05/18 11:35
20FNOKIA3210: 落合博滿,26歲才打職棒 05/18 11:35
21FCook43: R.A. Dickey 05/18 11:36
22Fhyjoly: 李維拉算嗎 25歲升上大聯盟 27歲正式接班CL 05/18 11:36
23Fs310213: 千賀不是大器晚成 05/18 11:38
24Fpeter89000: 包爺真的是蠻經典的 05/18 11:38
25Fvance1024: Corey Kluber 27歲站穩MLB 28歲拿下CYA-1 05/18 11:38
26FPSP156: 李維拉還差點被交易 05/18 11:39
好像是搞錯....但忽然間想不起來該用哪個形容詞... ※ 編輯: darkofpolo (114.47.78.231), 05/18/2019 11:39:59
27Fa1090236: 和田一浩(29)通算149安,43歲退休生涯2050安 05/18 11:39
28Fterminator3: Max Muncy 05/18 11:39
29Fhyjoly: 所以金寶還在堅持身價 實在有點可惜 他23歲就開始累積SV 05/18 11:40
30Fterminator3: 不過他順位不算差了== 05/18 11:40
31Fyoungorg: 可是千賀21歲就進明星賽了阿 05/18 11:41
32Fhighwayshih: 跌破眼鏡就好啦 05/18 11:41
※ 編輯: darkofpolo (114.47.78.231), 05/18/2019 11:41:57
33Fyoungorg: 20歲 05/18 11:41
34Fkingcharlie: 你到底是要問大器晚成還是低順位卻爆發的= = 05/18 11:41
改了,大致上就是你說的那個意思啦...剛剛真的想不起來該怎麼形容 ※ 編輯: darkofpolo (114.47.78.231), 05/18/2019 11:42:28
35Fterminator3: 低順位最經典是Mike Piazza 05/18 11:43
36Floser116: 大帝 05/18 11:43
37Fhsuchihung: 原PO要問大黑馬 沙粒的珍珠類型的啦 05/18 11:43
38Fhsuchihung: 還有什麼形容詞啊? 05/18 11:44
對對!
39Fabc22753939: 黑馬恩賜 05/18 11:44
大概是像前面幾樓提到的像包爺這樣的,低順位球員卻大爆發變成明星級球員 ※ 編輯: darkofpolo (114.47.78.231), 05/18/2019 11:45:37
40Fstoryf66014: RJ遇到NR從平凡人變神 05/18 11:45
41FEnsidia: 年齡的話神左 低順位Piazza 05/18 11:46
42Fevilgenius: 兄弟球員 05/18 11:46
43Feee60109: Nelson Cruz 05/18 11:46
44Fblackwoods: 微笑郭吧 他去小聯盟的時候簽約金其實不高 只是當時中 05/18 11:48
45Fblackwoods: 職環境不好 大家寧可出去蹲 在小聯盟的成績也不好 選 05/18 11:48
46FCleIndians: 中信兄弟的每一位 05/18 11:48
47Fblackwoods: 他的時候猴迷哀鴻遍野 不過後來算是紅中慧眼獨具吧? 05/18 11:48
48Flaihom0808: 朱育賢 05/18 11:49
49Fyankees733: 選秀低不就Piazza 05/18 11:50
50Fredzero: 金寶跟開口選秀完應該就有人簽 現在簽要丟選秀權 05/18 11:51
51FGrammy: 廖于誠 吳保賢 05/18 11:51
52Fchoroq3: 大田泰示 05/18 11:56
53FHCS0730: 就18王威晨吧 05/18 11:56
54Flee71xc07: 傑瑞米.林 05/18 11:59
55FmiracleOrz: Wakefield 算嗎 05/18 12:04
56Fidontbirdu: N4 05/18 12:07
57Fpeterw: 蔡豐安~~算嗎? 05/18 12:10
58FBryceHarper: 歐書誠 05/18 12:11
59Fmax2604: 普神在第13輪被選中算嗎 05/18 12:16
60Fsavishu: 王葛格26歲上大聯盟,27歲19勝 05/18 12:18
61Fyoudar: 恩賜啊 05/18 12:24
62Fssj1988: 澎恰恰 在乙組打過沒正式打過職棒 後來去當明星了 05/18 12:27
63Fdragon50119: deGrom 05/18 12:28
64FDCARDNOBRAIN: 黑金潛水艇 05/18 12:30
65FHomer: 朱育賢 05/18 12:36
66FDoraemon9487: No 郭嚴文當時就有人認為他能夠繳出比陳鏞基好的生 05/18 12:39
67FDoraemon9487: 涯,只是統一需要人氣 05/18 12:39
68FJimK0511: 國慶吧 05/18 12:46
69Fkingcharlie: 補推 05/18 12:50
70Fprotoast: 大田2009是一指欸... 05/18 12:51
71Fleana: 偷渡一下 Tom Brady 05/18 12:55
72Falfonso4546: 只知道過譽的 05/18 12:56
73FQQ101: 甲斐拓也 05/18 12:59
74Fa19880831: 大田算大器晚成 不算黑馬吧 05/18 13:12
75FTheMadThanos: 朱育賢 05/18 13:16
76Fminihyde: 大野豐吧 幾乎不被職棒球隊看上的資歷 後來入選野球殿堂 05/18 13:23
77Fya245011: PJ tucker 05/18 13:25
78Fpippen7258: David Ortiz 05/18 13:27
79FEdaw: 朱育賢 05/18 13:28
80Fcinlix: 朱鴻森 05/18 13:31
81FDarkKnight: 陳傑憲 05/18 13:33
82Fgodsong5566: 郭修延 05/18 13:37
83Fdr900143: 朱哥 05/18 13:45
84Fgll: RJ 05/18 13:56
85Faxsz: Glasnow Bellinger 山本由伸 05/18 14:07
86Fuvegotmail: 調布隊投手 05/18 14:11
87FBuster: 郭嚴文生涯成績比較爛好嗎 05/18 14:11
88FBuster: 某樓人如id 頗呵 05/18 14:11
89Fkinglin: 張泰山 05/18 14:12
90Fakizut: Mike Piazza 05/18 14:17
91Fvata: 小李飛刀 05/18 14:20
92Fkkjjkkjj: MLB 一堆 05/18 14:26
93Fwts2008: 如果當時中職有辦選秀 泰山不知會幾輪才選上 05/18 14:27
94Fa186361: 張志豪算嗎,原本應該沒有預期他會變成炮吧 05/18 14:50
95Fsfw2579: 林書豪 05/18 15:59
96FJohnsonyu6: 花花啊 原本興農牛不簽 到兄弟象變開路先鋒 05/18 22:18

完整討論串

留言數 標題 作者 日期
96 >> [問題] 從不被看好到變身明星的選手 darkofpolo 2019/05/18 11:26:59
8 Re: [問題] 從不被看好到變身明星的選手 moonmaker 2019/05/18 11:57:18
3 Re: [問題] 從不被看好到變身明星的選手 barry610171 2019/05/18 12:08:54
5 Re: [問題] 從不被看好到變身明星的選手 alex8725 2019/05/18 13:27:58

Baseball 看板熱門文章

最新熱門文章

82
177
22
66
2019/12/16 02:39:40
15
106
2019/12/16 02:11:33
95
143